createdAt,value
2023-03-02T00:03:42.230Z,2.23
2023-03-02T00:08:47.000Z,2.23
2023-03-02T00:13:50.709Z,2.17
2023-03-02T00:18:55.759Z,2.14
2023-03-02T00:23:59.506Z,2.02
2023-03-02T00:29:03.940Z,2.01
2023-03-02T00:34:09.008Z,1.99
2023-03-02T00:39:12.733Z,1.91
2023-03-02T00:44:17.728Z,1.86
2023-03-02T00:49:23.283Z,1.87
2023-03-02T00:54:27.046Z,1.88
2023-03-02T00:59:30.759Z,1.89
2023-03-02T01:04:39.617Z,1.81
2023-03-02T01:09:44.885Z,1.77
2023-03-02T01:14:50.848Z,1.76
2023-03-02T01:19:57.105Z,1.66
2023-03-02T01:25:00.845Z,1.61
2023-03-02T01:30:05.240Z,1.62
2023-03-02T01:35:10.925Z,1.57
2023-03-02T01:40:15.575Z,1.57
2023-03-02T01:45:51.686Z,1.49
2023-03-02T01:50:59.109Z,1.45
2023-03-02T01:56:05.719Z,1.48
2023-03-02T02:01:15.463Z,1.49
2023-03-02T02:06:25.355Z,1.45
2023-03-02T02:11:29.233Z,1.42
2023-03-02T02:16:35.690Z,1.33
2023-03-02T02:21:41.781Z,1.17
2023-03-02T02:26:49.850Z,1.05
2023-03-02T02:31:56.365Z,0.99
2023-03-02T02:37:04.786Z,0.96
2023-03-02T02:42:15.993Z,0.97
2023-03-02T02:47:22.605Z,0.91
2023-03-02T02:52:28.992Z,0.76
2023-03-02T02:57:34.084Z,0.79
2023-03-02T03:02:45.458Z,0.76
2023-03-02T03:07:49.278Z,0.74
2023-03-02T03:12:54.886Z,0.78
2023-03-02T03:17:59.738Z,0.73
2023-03-02T03:23:03.806Z,0.75
2023-03-02T03:28:09.350Z,0.70
2023-03-02T03:33:13.749Z,0.66
2023-03-02T03:38:18.155Z,0.55
2023-03-02T03:43:24.285Z,0.55
2023-03-02T03:48:28.478Z,0.50
2023-03-02T03:53:32.369Z,0.53
2023-03-02T03:58:38.580Z,0.51
2023-03-02T04:03:42.602Z,0.49
2023-03-02T04:08:46.435Z,0.47
2023-03-02T04:13:51.864Z,0.47
2023-03-02T04:18:55.990Z,0.46
2023-03-02T04:23:59.828Z,0.40
2023-03-02T04:29:05.889Z,0.38
2023-03-02T04:34:10.670Z,0.38
2023-03-02T04:39:18.267Z,0.33
2023-03-02T04:44:23.991Z,0.32
2023-03-02T04:49:27.876Z,0.35
2023-03-02T04:54:32.087Z,0.30
2023-03-02T04:59:37.160Z,0.24
2023-03-02T05:04:42.315Z,0.27
2023-03-02T05:09:46.241Z,0.16
2023-03-02T05:14:51.330Z,0.17
2023-03-02T05:19:54.991Z,0.08
2023-03-02T05:24:58.676Z,0.09
2023-03-02T05:30:03.871Z,0.05
2023-03-02T05:35:08.308Z,0.05
2023-03-02T05:40:16.266Z,0.05
2023-03-02T05:45:23.469Z,0.02
2023-03-02T05:50:27.220Z,-0.03
2023-03-02T05:55:31.127Z,-0.04
2023-03-02T06:00:36.336Z,-0.05
2023-03-02T06:05:40.544Z,-0.05
2023-03-02T06:10:44.527Z,-0.13
2023-03-02T06:15:49.633Z,-0.15
2023-03-02T06:20:53.367Z,-0.12
2023-03-02T06:25:58.150Z,-0.12
2023-03-02T06:31:03.235Z,-0.14
2023-03-02T06:36:07.647Z,-0.16
2023-03-02T06:41:11.402Z,-0.09
2023-03-02T06:46:16.544Z,-0.11
2023-03-02T06:51:20.278Z,-0.08
2023-03-02T06:56:24.519Z,-0.06
2023-03-02T07:01:33.402Z,-0.05
2023-03-02T07:06:37.300Z,-0.04
2023-03-02T07:11:41.148Z,-0.01
2023-03-02T07:16:46.312Z,0.07
2023-03-02T07:21:50.165Z,0.16
2023-03-02T07:26:53.884Z,0.27
2023-03-02T07:32:00.462Z,0.37
2023-03-02T07:37:05.007Z,0.45
2023-03-02T07:42:11.377Z,0.51
2023-03-02T07:47:18.406Z,0.61
2023-03-02T07:52:22.225Z,0.76
2023-03-02T07:57:26.202Z,0.98
2023-03-02T08:02:33.621Z,1.15
2023-03-02T08:07:37.413Z,1.21
2023-03-02T08:12:42.902Z,1.30
2023-03-02T08:17:48.197Z,1.39
2023-03-02T08:22:52.552Z,1.48
2023-03-02T08:27:56.352Z,1.62
2023-03-02T08:33:05.337Z,1.76
2023-03-02T08:38:10.464Z,1.91
2023-03-02T08:43:14.297Z,2.06
2023-03-02T08:48:19.727Z,2.20
2023-03-02T08:53:23.779Z,2.28
2023-03-02T08:58:27.511Z,2.45
2023-03-02T09:03:32.538Z,2.63
2023-03-02T09:08:36.350Z,2.85
2023-03-02T09:13:40.174Z,3.02
2023-03-02T09:18:45.242Z,3.20
2023-03-02T09:23:49.014Z,3.34
2023-03-02T09:28:53.001Z,3.49
2023-03-02T09:33:59.198Z,3.58
2023-03-02T09:39:09.246Z,3.80
2023-03-02T09:44:31.786Z,4.02
2023-03-02T09:49:53.753Z,4.17
2023-03-02T09:54:58.346Z,4.36
2023-03-02T10:00:18.638Z,4.58
2023-03-02T10:05:28.418Z,4.82
2023-03-02T10:10:41.410Z,5.08
2023-03-02T10:15:54.083Z,5.37
2023-03-02T10:21:04.639Z,5.67
2023-03-02T10:26:19.671Z,6.06
2023-03-02T10:31:29.153Z,6.55
2023-03-02T10:36:39.480Z,7.01
2023-03-02T10:41:49.469Z,7.56
2023-03-02T10:46:53.959Z,8.18
2023-03-02T10:52:03.815Z,9.34
2023-03-02T10:57:29.341Z,10.27
2023-03-02T11:02:38.362Z,10.85
2023-03-02T11:07:53.248Z,11.67
2023-03-02T11:12:57.247Z,12.61
2023-03-02T11:18:06.002Z,13.07
2023-03-02T11:23:31.462Z,13.83
2023-03-02T11:28:41.463Z,14.11
2023-03-02T11:34:11.596Z,14.73
2023-03-02T11:39:27.020Z,15.59
2023-03-02T11:44:31.050Z,15.63
2023-03-02T11:49:43.325Z,16.44
2023-03-02T11:54:54.748Z,16.36
2023-03-02T11:59:59.884Z,16.85
2023-03-02T12:05:05.847Z,17.39
2023-03-02T12:10:28.512Z,17.71
2023-03-02T12:15:38.926Z,17.94
2023-03-02T12:20:43.088Z,17.91
2023-03-02T12:25:51.490Z,18.48
2023-03-02T12:31:04.798Z,18.87
2023-03-02T12:36:15.156Z,19.65
2023-03-02T12:41:41.436Z,19.74
2023-03-02T12:46:46.660Z,19.24
2023-03-02T12:51:54.016Z,19.81
2023-03-02T12:57:08.952Z,19.97
2023-03-02T13:02:18.973Z,20.08
2023-03-02T13:07:26.891Z,20.38
2023-03-02T13:12:32.555Z,20.66
2023-03-02T13:17:36.336Z,20.98
2023-03-02T13:22:40.864Z,21.38
2023-03-02T13:27:53.591Z,21.62
2023-03-02T13:33:03.772Z,21.71
2023-03-02T13:38:17.042Z,21.94
2023-03-02T13:43:37.771Z,21.73
2023-03-02T13:48:41.575Z,22.45
2023-03-02T13:53:52.735Z,22.55
2023-03-02T13:58:57.909Z,22.23
2023-03-02T14:04:02.827Z,22.99
2023-03-02T14:09:06.573Z,23.01
2023-03-02T14:14:15.496Z,22.96
2023-03-02T14:19:20.161Z,23.19
2023-03-02T14:24:24.017Z,23.41
2023-03-02T14:29:31.139Z,23.46
2023-03-02T14:34:37.177Z,23.78
2023-03-02T14:39:43.464Z,23.94
2023-03-02T14:44:50.515Z,23.52
2023-03-02T14:49:54.609Z,23.91
2023-03-02T14:55:02.688Z,23.89
2023-03-02T15:00:09.678Z,23.84
2023-03-02T15:05:13.374Z,23.27
2023-03-02T15:10:20.312Z,23.56
2023-03-02T15:15:26.526Z,23.50
2023-03-02T15:20:30.323Z,23.23
2023-03-02T15:25:34.194Z,23.20
2023-03-02T15:30:39.266Z,23.14
2023-03-02T15:35:44.353Z,23.21
2023-03-02T15:40:48.223Z,22.99
2023-03-02T15:45:53.288Z,22.30
2023-03-02T15:50:58.415Z,22.08
2023-03-02T15:56:05.961Z,21.26
2023-03-02T16:01:12.791Z,20.68
2023-03-02T16:06:16.760Z,19.32
2023-03-02T16:11:23.314Z,17.72
2023-03-02T16:16:28.598Z,17.09
2023-03-02T16:21:32.412Z,16.51
2023-03-02T16:26:38.820Z,15.81
2023-03-02T16:31:46.594Z,15.13
2023-03-02T16:36:50.772Z,14.74
2023-03-02T16:41:54.544Z,14.32
2023-03-02T16:46:59.593Z,14.23
2023-03-02T16:52:03.390Z,14.06
2023-03-02T16:57:08.344Z,13.70
2023-03-02T17:02:13.890Z,13.69
2023-03-02T17:07:17.618Z,13.36
2023-03-02T17:12:21.298Z,13.26
2023-03-02T17:17:26.406Z,12.78
2023-03-02T17:22:30.179Z,12.47
2023-03-02T17:27:34.020Z,12.29
2023-03-02T17:32:39.401Z,12.09
2023-03-02T17:37:43.686Z,11.69
2023-03-02T17:42:47.451Z,11.75
2023-03-02T17:47:53.700Z,11.43
2023-03-02T17:52:57.483Z,11.24
2023-03-02T17:58:01.183Z,11.04
2023-03-02T18:03:06.289Z,10.86
2023-03-02T18:08:10.076Z,10.76
2023-03-02T18:13:13.831Z,10.58
2023-03-02T18:18:18.902Z,10.39
2023-03-02T18:23:22.692Z,10.14
2023-03-02T18:28:26.506Z,9.98
2023-03-02T18:33:31.741Z,9.86
2023-03-02T18:38:36.689Z,9.58
2023-03-02T18:43:42.592Z,9.45
2023-03-02T18:48:49.562Z,9.25
2023-03-02T18:53:53.489Z,9.04
2023-03-02T18:58:57.259Z,8.86
2023-03-02T19:04:03.587Z,8.79
2023-03-02T19:09:07.343Z,8.63
2023-03-02T19:14:11.050Z,8.41
2023-03-02T19:19:16.170Z,8.21
2023-03-02T19:24:19.938Z,8.20
2023-03-02T19:29:23.721Z,7.92
2023-03-02T19:34:29.154Z,7.65
2023-03-02T19:39:33.298Z,7.62
2023-03-02T19:44:37.307Z,7.51
2023-03-02T19:49:42.364Z,7.20
2023-03-02T19:54:46.154Z,7.05
2023-03-02T19:59:49.875Z,7.04
2023-03-02T20:04:54.999Z,7.01
2023-03-02T20:09:58.692Z,6.93
2023-03-02T20:15:02.974Z,6.79
2023-03-02T20:20:09.357Z,6.82
2023-03-02T20:25:14.466Z,6.57
2023-03-02T20:30:23.396Z,6.54
2023-03-02T20:35:30.926Z,6.37
2023-03-02T20:40:35.298Z,6.35
2023-03-02T20:45:39.089Z,6.26
2023-03-02T20:50:44.624Z,6.17
2023-03-02T20:55:48.442Z,5.97
2023-03-02T21:00:53.748Z,5.90
2023-03-02T21:05:58.891Z,5.80
2023-03-02T21:11:02.623Z,5.68
2023-03-02T21:16:07.557Z,5.60
2023-03-02T21:21:12.621Z,5.53
2023-03-02T21:26:17.502Z,5.37
2023-03-02T21:31:21.478Z,5.19
2023-03-02T21:36:26.681Z,5.17
2023-03-02T21:41:30.455Z,5.07
2023-03-02T21:46:36.412Z,4.87
2023-03-02T21:51:41.544Z,4.82
2023-03-02T21:56:45.428Z,4.71
2023-03-02T22:01:49.157Z,4.59
2023-03-02T22:06:54.208Z,4.49
2023-03-02T22:11:58.787Z,4.28
2023-03-02T22:17:13.877Z,4.35
2023-03-02T22:22:21.122Z,4.28
2023-03-02T22:27:26.834Z,4.19
2023-03-02T22:32:31.893Z,4.17
2023-03-02T22:37:37.041Z,4.13
2023-03-02T22:42:40.758Z,3.98
2023-03-02T22:47:48.113Z,3.87
2023-03-02T22:52:54.547Z,3.85
2023-03-02T22:57:58.354Z,3.75
2023-03-02T23:03:02.028Z,3.75
2023-03-02T23:08:19.272Z,3.75
2023-03-02T23:13:27.258Z,3.65
2023-03-02T23:18:33.824Z,3.52
2023-03-02T23:23:38.846Z,3.47
2023-03-02T23:28:42.724Z,3.49
2023-03-02T23:33:46.553Z,3.39
2023-03-02T23:38:51.919Z,3.36
2023-03-02T23:43:55.724Z,3.31
2023-03-02T23:48:59.523Z,3.29
2023-03-02T23:54:05.201Z,3.20
2023-03-02T23:59:08.928Z,3.17
